sensor_id;sensor_type;location;lat;lon;timestamp;P1;durP1;ratioP1;P2;durP2;ratioP2
53666;SDS011;39568;51.026;5.468;2022-12-07T00:01:58;41.05;;;22.23;;
53666;SDS011;39568;51.026;5.468;2022-12-07T00:04:26;34.38;;;21.58;;
53666;SDS011;39568;51.026;5.468;2022-12-07T00:06:53;41.60;;;19.20;;
53666;SDS011;39568;51.026;5.468;2022-12-07T00:09:20;27.27;;;15.20;;
53666;SDS011;39568;51.026;5.468;2022-12-07T00:11:48;30.08;;;15.25;;
53666;SDS011;39568;51.026;5.468;2022-12-07T00:14:15;24.73;;;14.05;;
53666;SDS011;39568;51.026;5.468;2022-12-07T00:16:43;33.03;;;18.27;;
53666;SDS011;39568;51.026;5.468;2022-12-07T00:19:11;22.67;;;13.52;;
53666;SDS011;39568;51.026;5.468;2022-12-07T00:21:40;50.88;;;19.48;;
53666;SDS011;39568;51.026;5.468;2022-12-07T00:24:06;16.38;;;9.48;;
53666;SDS011;39568;51.026;5.468;2022-12-07T00:26:34;31.23;;;12.60;;
53666;SDS011;39568;51.026;5.468;2022-12-07T00:29:02;17.23;;;10.98;;
53666;SDS011;39568;51.026;5.468;2022-12-07T00:31:32;14.00;;;10.70;;
53666;SDS011;39568;51.026;5.468;2022-12-07T00:34:00;37.03;;;18.33;;
53666;SDS011;39568;51.026;5.468;2022-12-07T00:36:27;30.88;;;17.35;;
53666;SDS011;39568;51.026;5.468;2022-12-07T00:38:56;48.25;;;23.95;;
53666;SDS011;39568;51.026;5.468;2022-12-07T00:41:25;19.23;;;12.27;;
53666;SDS011;39568;51.026;5.468;2022-12-07T00:43:52;33.25;;;20.23;;
53666;SDS011;39568;51.026;5.468;2022-12-07T00:46:20;45.53;;;25.13;;
53666;SDS011;39568;51.026;5.468;2022-12-07T00:48:47;18.30;;;11.57;;
53666;SDS011;39568;51.026;5.468;2022-12-07T00:51:15;46.33;;;23.15;;
53666;SDS011;39568;51.026;5.468;2022-12-07T00:53:43;48.95;;;25.13;;
53666;SDS011;39568;51.026;5.468;2022-12-07T00:56:11;41.70;;;22.92;;
53666;SDS011;39568;51.026;5.468;2022-12-07T00:58:39;26.70;;;12.63;;
53666;SDS011;39568;51.026;5.468;2022-12-07T01:01:06;32.53;;;17.38;;
53666;SDS011;39568;51.026;5.468;2022-12-07T01:03:34;42.50;;;23.38;;
53666;SDS011;39568;51.026;5.468;2022-12-07T01:06:01;48.20;;;21.02;;
53666;SDS011;39568;51.026;5.468;2022-12-07T01:08:29;58.92;;;28.50;;
53666;SDS011;39568;51.026;5.468;2022-12-07T01:10:59;33.45;;;20.23;;
53666;SDS011;39568;51.026;5.468;2022-12-07T01:13:27;49.30;;;22.10;;
53666;SDS011;39568;51.026;5.468;2022-12-07T01:15:56;53.55;;;27.05;;
53666;SDS011;39568;51.026;5.468;2022-12-07T01:18:25;50.47;;;25.37;;
53666;SDS011;39568;51.026;5.468;2022-12-07T01:20:59;38.70;;;17.55;;
53666;SDS011;39568;51.026;5.468;2022-12-07T01:23:27;16.83;;;11.25;;
53666;SDS011;39568;51.026;5.468;2022-12-07T01:25:55;54.42;;;29.17;;
53666;SDS011;39568;51.026;5.468;2022-12-07T01:28:22;35.53;;;20.55;;
53666;SDS011;39568;51.026;5.468;2022-12-07T01:30:57;50.17;;;27.25;;
53666;SDS011;39568;51.026;5.468;2022-12-07T01:33:26;53.10;;;28.95;;
53666;SDS011;39568;51.026;5.468;2022-12-07T01:35:53;63.08;;;31.08;;
53666;SDS011;39568;51.026;5.468;2022-12-07T01:38:19;48.25;;;21.90;;
53666;SDS011;39568;51.026;5.468;2022-12-07T01:40:53;42.47;;;19.20;;
53666;SDS011;39568;51.026;5.468;2022-12-07T01:43:20;37.75;;;22.55;;
53666;SDS011;39568;51.026;5.468;2022-12-07T01:45:49;62.50;;;29.25;;
53666;SDS011;39568;51.026;5.468;2022-12-07T01:48:18;39.05;;;24.50;;
53666;SDS011;39568;51.026;5.468;2022-12-07T01:50:49;36.97;;;21.67;;
53666;SDS011;39568;51.026;5.468;2022-12-07T01:53:17;37.72;;;22.73;;
53666;SDS011;39568;51.026;5.468;2022-12-07T01:55:48;50.60;;;25.27;;
53666;SDS011;39568;51.026;5.468;2022-12-07T01:58:18;21.33;;;15.05;;
53666;SDS011;39568;51.026;5.468;2022-12-07T02:00:45;50.58;;;29.05;;
53666;SDS011;39568;51.026;5.468;2022-12-07T02:03:13;52.50;;;28.27;;
53666;SDS011;39568;51.026;5.468;2022-12-07T02:05:45;53.55;;;26.92;;
53666;SDS011;39568;51.026;5.468;2022-12-07T02:08:13;34.15;;;18.67;;
53666;SDS011;39568;51.026;5.468;2022-12-07T02:10:40;45.15;;;22.98;;
53666;SDS011;39568;51.026;5.468;2022-12-07T02:13:08;70.18;;;33.53;;
53666;SDS011;39568;51.026;5.468;2022-12-07T02:15:39;67.43;;;29.27;;
53666;SDS011;39568;51.026;5.468;2022-12-07T02:18:17;55.97;;;24.77;;
53666;SDS011;39568;51.026;5.468;2022-12-07T02:20:51;60.10;;;33.15;;
53666;SDS011;39568;51.026;5.468;2022-12-07T02:23:35;50.58;;;28.00;;
53666;SDS011;39568;51.026;5.468;2022-12-07T02:26:21;58.28;;;32.83;;
53666;SDS011;39568;51.026;5.468;2022-12-07T02:29:12;51.25;;;28.70;;
53666;SDS011;39568;51.026;5.468;2022-12-07T02:31:44;40.83;;;22.10;;
53666;SDS011;39568;51.026;5.468;2022-12-07T02:34:16;50.70;;;27.95;;
53666;SDS011;39568;51.026;5.468;2022-12-07T02:36:50;60.80;;;33.33;;
53666;SDS011;39568;51.026;5.468;2022-12-07T02:39:23;67.38;;;34.85;;
53666;SDS011;39568;51.026;5.468;2022-12-07T02:41:58;51.00;;;29.13;;
53666;SDS011;39568;51.026;5.468;2022-12-07T02:44:30;66.75;;;34.97;;
53666;SDS011;39568;51.026;5.468;2022-12-07T02:46:59;65.28;;;36.30;;
53666;SDS011;39568;51.026;5.468;2022-12-07T02:49:29;33.00;;;18.20;;
53666;SDS011;39568;51.026;5.468;2022-12-07T02:51:57;69.70;;;35.63;;
53666;SDS011;39568;51.026;5.468;2022-12-07T02:54:24;57.70;;;29.05;;
53666;SDS011;39568;51.026;5.468;2022-12-07T02:56:51;49.05;;;28.40;;
53666;SDS011;39568;51.026;5.468;2022-12-07T02:59:25;60.15;;;35.78;;
53666;SDS011;39568;51.026;5.468;2022-12-07T03:02:05;67.35;;;32.90;;
53666;SDS011;39568;51.026;5.468;2022-12-07T03:04:41;60.65;;;36.10;;
53666;SDS011;39568;51.026;5.468;2022-12-07T03:09:43;60.70;;;32.75;;
53666;SDS011;39568;51.026;5.468;2022-12-07T03:12:18;53.88;;;31.60;;
53666;SDS011;39568;51.026;5.468;2022-12-07T03:14:50;54.88;;;32.80;;
53666;SDS011;39568;51.026;5.468;2022-12-07T03:17:22;77.00;;;38.55;;
53666;SDS011;39568;51.026;5.468;2022-12-07T03:19:54;74.78;;;38.13;;
53666;SDS011;39568;51.026;5.468;2022-12-07T03:22:24;48.42;;;26.80;;
53666;SDS011;39568;51.026;5.468;2022-12-07T03:24:57;41.25;;;21.63;;
53666;SDS011;39568;51.026;5.468;2022-12-07T03:27:27;74.35;;;38.38;;
53666;SDS011;39568;51.026;5.468;2022-12-07T03:30:00;57.53;;;24.05;;
53666;SDS011;39568;51.026;5.468;2022-12-07T03:32:30;60.38;;;34.42;;
53666;SDS011;39568;51.026;5.468;2022-12-07T03:37:31;54.45;;;27.52;;
53666;SDS011;39568;51.026;5.468;2022-12-07T03:40:02;65.88;;;35.97;;
53666;SDS011;39568;51.026;5.468;2022-12-07T03:42:33;55.30;;;31.17;;
53666;SDS011;39568;51.026;5.468;2022-12-07T03:45:02;59.38;;;28.77;;
53666;SDS011;39568;51.026;5.468;2022-12-07T03:47:31;57.10;;;34.72;;
53666;SDS011;39568;51.026;5.468;2022-12-07T03:50:02;66.07;;;37.25;;
53666;SDS011;39568;51.026;5.468;2022-12-07T03:52:36;70.15;;;35.60;;
53666;SDS011;39568;51.026;5.468;2022-12-07T03:55:08;68.68;;;33.42;;
53666;SDS011;39568;51.026;5.468;2022-12-07T03:57:37;46.53;;;26.60;;
53666;SDS011;39568;51.026;5.468;2022-12-07T04:00:09;60.80;;;32.78;;
53666;SDS011;39568;51.026;5.468;2022-12-07T04:02:37;67.60;;;33.25;;
53666;SDS011;39568;51.026;5.468;2022-12-07T04:05:04;59.08;;;32.10;;
53666;SDS011;39568;51.026;5.468;2022-12-07T04:07:32;70.80;;;35.65;;
53666;SDS011;39568;51.026;5.468;2022-12-07T04:09:58;48.83;;;28.23;;
53666;SDS011;39568;51.026;5.468;2022-12-07T04:12:25;53.42;;;27.92;;
53666;SDS011;39568;51.026;5.468;2022-12-07T04:14:52;62.88;;;30.63;;
53666;SDS011;39568;51.026;5.468;2022-12-07T04:17:20;59.85;;;30.90;;
53666;SDS011;39568;51.026;5.468;2022-12-07T04:19:47;51.53;;;23.63;;
53666;SDS011;39568;51.026;5.468;2022-12-07T04:22:13;64.95;;;33.20;;
53666;SDS011;39568;51.026;5.468;2022-12-07T04:24:40;53.67;;;30.85;;
53666;SDS011;39568;51.026;5.468;2022-12-07T04:27:07;65.97;;;34.35;;
53666;SDS011;39568;51.026;5.468;2022-12-07T04:29:33;74.88;;;34.00;;
53666;SDS011;39568;51.026;5.468;2022-12-07T04:32:00;69.85;;;29.63;;
53666;SDS011;39568;51.026;5.468;2022-12-07T04:34:28;56.30;;;32.78;;
53666;SDS011;39568;51.026;5.468;2022-12-07T04:36:55;64.45;;;32.22;;
53666;SDS011;39568;51.026;5.468;2022-12-07T04:39:23;72.32;;;38.22;;
53666;SDS011;39568;51.026;5.468;2022-12-07T04:41:51;45.38;;;26.95;;
53666;SDS011;39568;51.026;5.468;2022-12-07T04:44:18;54.97;;;29.80;;
53666;SDS011;39568;51.026;5.468;2022-12-07T04:46:45;67.72;;;35.35;;
53666;SDS011;39568;51.026;5.468;2022-12-07T04:49:13;71.75;;;32.83;;
53666;SDS011;39568;51.026;5.468;2022-12-07T04:51:42;32.70;;;17.15;;
53666;SDS011;39568;51.026;5.468;2022-12-07T04:54:09;73.10;;;39.05;;
53666;SDS011;39568;51.026;5.468;2022-12-07T04:56:36;51.20;;;29.70;;
53666;SDS011;39568;51.026;5.468;2022-12-07T04:59:03;30.27;;;16.52;;
53666;SDS011;39568;51.026;5.468;2022-12-07T05:01:30;69.70;;;34.55;;
53666;SDS011;39568;51.026;5.468;2022-12-07T05:03:58;81.80;;;40.95;;
53666;SDS011;39568;51.026;5.468;2022-12-07T05:06:25;84.65;;;40.90;;
53666;SDS011;39568;51.026;5.468;2022-12-07T05:08:53;83.97;;;39.05;;
53666;SDS011;39568;51.026;5.468;2022-12-07T05:11:20;79.63;;;32.28;;
53666;SDS011;39568;51.026;5.468;2022-12-07T05:14:05;93.28;;;38.40;;
53666;SDS011;39568;51.026;5.468;2022-12-07T05:16:34;82.57;;;33.30;;
53666;SDS011;39568;51.026;5.468;2022-12-07T05:19:01;86.78;;;34.80;;
53666;SDS011;39568;51.026;5.468;2022-12-07T05:21:28;66.60;;;28.15;;
53666;SDS011;39568;51.026;5.468;2022-12-07T05:23:56;65.22;;;26.38;;
53666;SDS011;39568;51.026;5.468;2022-12-07T05:26:23;52.95;;;23.58;;
53666;SDS011;39568;51.026;5.468;2022-12-07T05:28:50;66.03;;;23.25;;
53666;SDS011;39568;51.026;5.468;2022-12-07T05:31:17;86.95;;;31.20;;
53666;SDS011;39568;51.026;5.468;2022-12-07T05:33:44;123.40;;;28.85;;
53666;SDS011;39568;51.026;5.468;2022-12-07T05:36:11;66.88;;;30.90;;
53666;SDS011;39568;51.026;5.468;2022-12-07T05:38:37;90.10;;;40.20;;
53666;SDS011;39568;51.026;5.468;2022-12-07T05:41:06;64.97;;;27.33;;
53666;SDS011;39568;51.026;5.468;2022-12-07T05:43:54;105.45;;;27.55;;
53666;SDS011;39568;51.026;5.468;2022-12-07T05:46:21;59.65;;;24.67;;
53666;SDS011;39568;51.026;5.468;2022-12-07T05:48:47;63.10;;;23.15;;
53666;SDS011;39568;51.026;5.468;2022-12-07T05:51:14;117.13;;;30.60;;
53666;SDS011;39568;51.026;5.468;2022-12-07T05:53:41;132.23;;;37.88;;
53666;SDS011;39568;51.026;5.468;2022-12-07T05:56:09;57.90;;;24.02;;
53666;SDS011;39568;51.026;5.468;2022-12-07T05:58:36;171.27;;;43.65;;
53666;SDS011;39568;51.026;5.468;2022-12-07T06:01:20;109.68;;;32.08;;
53666;SDS011;39568;51.026;5.468;2022-12-07T06:03:47;131.60;;;41.00;;
53666;SDS011;39568;51.026;5.468;2022-12-07T06:06:13;89.68;;;35.00;;
53666;SDS011;39568;51.026;5.468;2022-12-07T06:08:40;49.63;;;22.80;;
53666;SDS011;39568;51.026;5.468;2022-12-07T06:11:07;93.72;;;40.15;;
53666;SDS011;39568;51.026;5.468;2022-12-07T06:13:52;83.70;;;36.58;;
53666;SDS011;39568;51.026;5.468;2022-12-07T06:16:19;79.97;;;37.05;;
53666;SDS011;39568;51.026;5.468;2022-12-07T06:18:45;48.38;;;25.95;;
53666;SDS011;39568;51.026;5.468;2022-12-07T06:21:12;84.07;;;33.92;;
53666;SDS011;39568;51.026;5.468;2022-12-07T06:23:39;80.53;;;34.00;;
53666;SDS011;39568;51.026;5.468;2022-12-07T06:26:06;92.97;;;43.75;;
53666;SDS011;39568;51.026;5.468;2022-12-07T06:28:32;104.22;;;45.95;;
53666;SDS011;39568;51.026;5.468;2022-12-07T06:31:01;105.15;;;42.70;;
53666;SDS011;39568;51.026;5.468;2022-12-07T06:33:28;101.85;;;46.20;;
53666;SDS011;39568;51.026;5.468;2022-12-07T06:35:55;89.13;;;42.83;;
53666;SDS011;39568;51.026;5.468;2022-12-07T06:38:22;86.95;;;43.22;;
53666;SDS011;39568;51.026;5.468;2022-12-07T06:40:49;90.60;;;40.92;;
53666;SDS011;39568;51.026;5.468;2022-12-07T06:43:16;86.75;;;35.05;;
53666;SDS011;39568;51.026;5.468;2022-12-07T06:45:43;79.40;;;38.33;;
53666;SDS011;39568;51.026;5.468;2022-12-07T06:48:11;86.05;;;35.53;;
53666;SDS011;39568;51.026;5.468;2022-12-07T06:50:37;91.97;;;37.70;;
53666;SDS011;39568;51.026;5.468;2022-12-07T06:53:04;91.82;;;39.30;;
53666;SDS011;39568;51.026;5.468;2022-12-07T06:55:31;63.40;;;30.25;;
53666;SDS011;39568;51.026;5.468;2022-12-07T06:57:57;81.35;;;38.17;;
53666;SDS011;39568;51.026;5.468;2022-12-07T07:00:24;97.85;;;41.15;;
53666;SDS011;39568;51.026;5.468;2022-12-07T07:02:51;92.90;;;41.42;;
53666;SDS011;39568;51.026;5.468;2022-12-07T07:05:19;83.97;;;38.20;;
53666;SDS011;39568;51.026;5.468;2022-12-07T07:07:47;87.03;;;37.65;;
53666;SDS011;39568;51.026;5.468;2022-12-07T07:10:14;46.03;;;24.58;;
53666;SDS011;39568;51.026;5.468;2022-12-07T07:12:40;89.18;;;41.00;;
53666;SDS011;39568;51.026;5.468;2022-12-07T07:15:08;84.95;;;38.03;;
53666;SDS011;39568;51.026;5.468;2022-12-07T07:17:36;93.47;;;38.92;;
53666;SDS011;39568;51.026;5.468;2022-12-07T07:20:03;84.18;;;24.17;;
53666;SDS011;39568;51.026;5.468;2022-12-07T07:22:32;159.20;;;40.83;;
53666;SDS011;39568;51.026;5.468;2022-12-07T07:24:59;122.40;;;32.15;;
53666;SDS011;39568;51.026;5.468;2022-12-07T07:27:26;167.10;;;38.13;;
53666;SDS011;39568;51.026;5.468;2022-12-07T07:29:52;81.38;;;21.52;;
53666;SDS011;39568;51.026;5.468;2022-12-07T07:32:19;186.77;;;32.78;;
53666;SDS011;39568;51.026;5.468;2022-12-07T07:34:47;86.38;;;20.02;;
53666;SDS011;39568;51.026;5.468;2022-12-07T07:37:13;59.13;;;18.80;;
53666;SDS011;39568;51.026;5.468;2022-12-07T07:39:41;187.80;;;33.55;;
53666;SDS011;39568;51.026;5.468;2022-12-07T07:42:08;91.32;;;21.95;;
53666;SDS011;39568;51.026;5.468;2022-12-07T07:44:35;215.45;;;39.42;;
53666;SDS011;39568;51.026;5.468;2022-12-07T07:47:01;293.63;;;41.10;;
53666;SDS011;39568;51.026;5.468;2022-12-07T07:49:28;326.50;;;40.97;;
53666;SDS011;39568;51.026;5.468;2022-12-07T07:51:55;203.25;;;36.70;;
53666;SDS011;39568;51.026;5.468;2022-12-07T07:54:22;157.68;;;36.13;;
53666;SDS011;39568;51.026;5.468;2022-12-07T07:56:50;175.05;;;33.97;;
53666;SDS011;39568;51.026;5.468;2022-12-07T07:59:16;314.30;;;46.97;;
53666;SDS011;39568;51.026;5.468;2022-12-07T08:01:43;231.10;;;36.60;;
53666;SDS011;39568;51.026;5.468;2022-12-07T08:04:10;235.75;;;39.10;;
53666;SDS011;39568;51.026;5.468;2022-12-07T08:06:36;188.02;;;32.88;;
53666;SDS011;39568;51.026;5.468;2022-12-07T08:09:03;155.10;;;31.17;;
53666;SDS011;39568;51.026;5.468;2022-12-07T08:11:30;123.78;;;32.67;;
53666;SDS011;39568;51.026;5.468;2022-12-07T08:13:59;28.30;;;15.00;;
53666;SDS011;39568;51.026;5.468;2022-12-07T08:16:25;99.25;;;28.70;;
53666;SDS011;39568;51.026;5.468;2022-12-07T08:18:52;93.15;;;30.98;;
53666;SDS011;39568;51.026;5.468;2022-12-07T08:21:19;53.20;;;23.50;;
53666;SDS011;39568;51.026;5.468;2022-12-07T08:23:46;55.63;;;24.80;;
53666;SDS011;39568;51.026;5.468;2022-12-07T08:26:13;64.28;;;25.30;;
53666;SDS011;39568;51.026;5.468;2022-12-07T08:28:41;63.47;;;26.70;;
53666;SDS011;39568;51.026;5.468;2022-12-07T08:31:12;97.25;;;31.77;;
53666;SDS011;39568;51.026;5.468;2022-12-07T08:33:41;79.70;;;25.42;;
53666;SDS011;39568;51.026;5.468;2022-12-07T08:36:08;64.60;;;21.90;;
53666;SDS011;39568;51.026;5.468;2022-12-07T08:38:37;64.18;;;24.20;;
53666;SDS011;39568;51.026;5.468;2022-12-07T08:41:04;24.92;;;14.35;;
53666;SDS011;39568;51.026;5.468;2022-12-07T08:43:31;32.75;;;13.25;;
53666;SDS011;39568;51.026;5.468;2022-12-07T08:46:04;112.07;;;26.30;;
53666;SDS011;39568;51.026;5.468;2022-12-07T08:48:36;94.53;;;27.35;;
53666;SDS011;39568;51.026;5.468;2022-12-07T08:51:05;43.08;;;24.13;;
53666;SDS011;39568;51.026;5.468;2022-12-07T08:53:32;61.75;;;29.08;;
53666;SDS011;39568;51.026;5.468;2022-12-07T08:56:00;41.10;;;20.55;;
53666;SDS011;39568;51.026;5.468;2022-12-07T08:58:27;54.00;;;22.67;;
53666;SDS011;39568;51.026;5.468;2022-12-07T09:00:53;54.30;;;27.75;;
53666;SDS011;39568;51.026;5.468;2022-12-07T09:03:20;34.30;;;19.65;;
53666;SDS011;39568;51.026;5.468;2022-12-07T09:05:48;29.67;;;15.30;;
53666;SDS011;39568;51.026;5.468;2022-12-07T09:08:15;33.08;;;17.13;;
53666;SDS011;39568;51.026;5.468;2022-12-07T09:10:42;55.60;;;26.85;;
53666;SDS011;39568;51.026;5.468;2022-12-07T09:13:09;32.95;;;18.02;;
53666;SDS011;39568;51.026;5.468;2022-12-07T09:15:35;34.95;;;19.52;;
53666;SDS011;39568;51.026;5.468;2022-12-07T09:18:02;39.65;;;20.83;;
53666;SDS011;39568;51.026;5.468;2022-12-07T09:20:29;51.05;;;26.83;;
53666;SDS011;39568;51.026;5.468;2022-12-07T09:22:57;52.90;;;30.27;;
53666;SDS011;39568;51.026;5.468;2022-12-07T09:25:27;48.45;;;24.65;;
53666;SDS011;39568;51.026;5.468;2022-12-07T09:27:57;55.95;;;26.52;;
53666;SDS011;39568;51.026;5.468;2022-12-07T09:30:24;40.67;;;20.70;;
53666;SDS011;39568;51.026;5.468;2022-12-07T09:32:52;37.53;;;19.05;;
53666;SDS011;39568;51.026;5.468;2022-12-07T09:35:19;34.05;;;20.85;;
53666;SDS011;39568;51.026;5.468;2022-12-07T09:37:45;26.15;;;15.00;;
53666;SDS011;39568;51.026;5.468;2022-12-07T09:40:14;31.08;;;15.13;;
53666;SDS011;39568;51.026;5.468;2022-12-07T09:42:43;42.38;;;23.45;;
53666;SDS011;39568;51.026;5.468;2022-12-07T09:45:12;21.45;;;14.10;;
53666;SDS011;39568;51.026;5.468;2022-12-07T09:47:42;41.97;;;22.83;;
53666;SDS011;39568;51.026;5.468;2022-12-07T09:50:12;45.03;;;19.98;;
53666;SDS011;39568;51.026;5.468;2022-12-07T09:52:41;70.60;;;23.23;;
53666;SDS011;39568;51.026;5.468;2022-12-07T09:55:10;43.42;;;22.55;;
53666;SDS011;39568;51.026;5.468;2022-12-07T09:57:41;38.38;;;19.73;;
53666;SDS011;39568;51.026;5.468;2022-12-07T10:00:11;27.10;;;18.13;;
53666;SDS011;39568;51.026;5.468;2022-12-07T10:02:41;28.48;;;15.73;;
53666;SDS011;39568;51.026;5.468;2022-12-07T10:05:10;38.08;;;19.40;;
53666;SDS011;39568;51.026;5.468;2022-12-07T10:07:40;30.10;;;17.27;;
53666;SDS011;39568;51.026;5.468;2022-12-07T10:10:09;25.30;;;14.45;;
53666;SDS011;39568;51.026;5.468;2022-12-07T10:12:53;27.50;;;15.75;;
53666;SDS011;39568;51.026;5.468;2022-12-07T10:15:22;16.33;;;11.05;;
53666;SDS011;39568;51.026;5.468;2022-12-07T10:17:49;19.58;;;10.85;;
53666;SDS011;39568;51.026;5.468;2022-12-07T10:20:21;18.85;;;10.70;;
53666;SDS011;39568;51.026;5.468;2022-12-07T10:23:00;18.42;;;10.30;;
53666;SDS011;39568;51.026;5.468;2022-12-07T10:25:30;19.45;;;10.00;;
53666;SDS011;39568;51.026;5.468;2022-12-07T10:28:09;25.83;;;13.48;;
53666;SDS011;39568;51.026;5.468;2022-12-07T10:30:52;13.50;;;8.32;;
53666;SDS011;39568;51.026;5.468;2022-12-07T10:33:28;16.33;;;7.30;;
53666;SDS011;39568;51.026;5.468;2022-12-07T10:35:59;12.30;;;8.50;;
53666;SDS011;39568;51.026;5.468;2022-12-07T10:38:27;17.73;;;10.45;;
53666;SDS011;39568;51.026;5.468;2022-12-07T10:41:03;16.15;;;7.88;;
53666;SDS011;39568;51.026;5.468;2022-12-07T10:43:33;12.25;;;7.55;;
53666;SDS011;39568;51.026;5.468;2022-12-07T10:46:09;13.23;;;8.32;;
53666;SDS011;39568;51.026;5.468;2022-12-07T10:48:49;10.38;;;6.60;;
53666;SDS011;39568;51.026;5.468;2022-12-07T10:51:26;14.70;;;5.43;;
53666;SDS011;39568;51.026;5.468;2022-12-07T10:54:09;7.15;;;4.78;;
53666;SDS011;39568;51.026;5.468;2022-12-07T10:57:01;11.98;;;5.88;;
53666;SDS011;39568;51.026;5.468;2022-12-07T10:59:47;12.05;;;6.10;;
53666;SDS011;39568;51.026;5.468;2022-12-07T11:02:27;8.23;;;3.33;;
53666;SDS011;39568;51.026;5.468;2022-12-07T11:05:06;8.30;;;3.53;;
53666;SDS011;39568;51.026;5.468;2022-12-07T11:07:44;16.27;;;2.75;;
53666;SDS011;39568;51.026;5.468;2022-12-07T11:10:18;7.95;;;3.50;;
53666;SDS011;39568;51.026;5.468;2022-12-07T11:15:50;13.10;;;4.70;;
53666;SDS011;39568;51.026;5.468;2022-12-07T11:18:45;7.18;;;3.15;;
53666;SDS011;39568;51.026;5.468;2022-12-07T11:21:20;9.65;;;2.88;;
53666;SDS011;39568;51.026;5.468;2022-12-07T11:23:53;2.72;;;2.53;;
53666;SDS011;39568;51.026;5.468;2022-12-07T11:26:32;5.93;;;4.25;;
53666;SDS011;39568;51.026;5.468;2022-12-07T11:29:15;10.55;;;5.78;;
53666;SDS011;39568;51.026;5.468;2022-12-07T11:37:03;6.68;;;4.10;;
53666;SDS011;39568;51.026;5.468;2022-12-07T11:39:39;6.63;;;2.85;;
53666;SDS011;39568;51.026;5.468;2022-12-07T11:42:12;4.40;;;3.25;;
53666;SDS011;39568;51.026;5.468;2022-12-07T11:44:45;7.38;;;3.53;;
53666;SDS011;39568;51.026;5.468;2022-12-07T11:47:20;9.43;;;4.20;;
53666;SDS011;39568;51.026;5.468;2022-12-07T11:49:53;3.53;;;3.22;;
53666;SDS011;39568;51.026;5.468;2022-12-07T11:52:25;9.27;;;3.15;;
53666;SDS011;39568;51.026;5.468;2022-12-07T11:54:56;7.63;;;4.30;;
53666;SDS011;39568;51.026;5.468;2022-12-07T11:57:27;2.95;;;2.75;;
53666;SDS011;39568;51.026;5.468;2022-12-07T12:00:01;5.03;;;3.70;;
53666;SDS011;39568;51.026;5.468;2022-12-07T12:02:33;10.05;;;4.63;;
53666;SDS011;39568;51.026;5.468;2022-12-07T12:05:12;6.38;;;3.33;;
53666;SDS011;39568;51.026;5.468;2022-12-07T12:07:42;11.43;;;4.30;;
53666;SDS011;39568;51.026;5.468;2022-12-07T12:10:14;5.05;;;4.38;;
53666;SDS011;39568;51.026;5.468;2022-12-07T12:12:48;10.15;;;4.93;;
53666;SDS011;39568;51.026;5.468;2022-12-07T12:15:36;2.03;;;1.92;;
53666;SDS011;39568;51.026;5.468;2022-12-07T12:18:27;15.50;;;3.95;;
53666;SDS011;39568;51.026;5.468;2022-12-07T12:21:07;16.88;;;5.07;;
53666;SDS011;39568;51.026;5.468;2022-12-07T12:23:37;3.08;;;2.35;;
53666;SDS011;39568;51.026;5.468;2022-12-07T12:26:08;14.52;;;5.18;;
53666;SDS011;39568;51.026;5.468;2022-12-07T12:28:48;6.28;;;3.58;;
53666;SDS011;39568;51.026;5.468;2022-12-07T12:31:28;12.90;;;4.60;;
53666;SDS011;39568;51.026;5.468;2022-12-07T12:34:02;3.60;;;3.30;;
53666;SDS011;39568;51.026;5.468;2022-12-07T12:36:43;20.02;;;7.15;;
53666;SDS011;39568;51.026;5.468;2022-12-07T12:39:12;3.70;;;2.50;;
53666;SDS011;39568;51.026;5.468;2022-12-07T12:41:55;3.55;;;2.47;;
53666;SDS011;39568;51.026;5.468;2022-12-07T12:50:55;7.50;;;4.13;;
53666;SDS011;39568;51.026;5.468;2022-12-07T12:54:03;6.13;;;4.75;;
53666;SDS011;39568;51.026;5.468;2022-12-07T12:56:35;14.55;;;5.10;;
53666;SDS011;39568;51.026;5.468;2022-12-07T12:59:23;11.05;;;3.58;;
53666;SDS011;39568;51.026;5.468;2022-12-07T13:01:53;12.95;;;5.85;;
53666;SDS011;39568;51.026;5.468;2022-12-07T13:04:23;11.05;;;4.95;;
53666;SDS011;39568;51.026;5.468;2022-12-07T13:06:57;11.50;;;5.75;;
53666;SDS011;39568;51.026;5.468;2022-12-07T13:09:24;3.83;;;3.63;;
53666;SDS011;39568;51.026;5.468;2022-12-07T13:12:01;9.20;;;5.25;;
53666;SDS011;39568;51.026;5.468;2022-12-07T13:23:12;13.23;;;5.55;;
53666;SDS011;39568;51.026;5.468;2022-12-07T13:25:44;12.73;;;4.40;;
53666;SDS011;39568;51.026;5.468;2022-12-07T13:28:17;8.00;;;3.92;;
53666;SDS011;39568;51.026;5.468;2022-12-07T13:30:48;8.65;;;4.68;;
53666;SDS011;39568;51.026;5.468;2022-12-07T13:33:24;15.05;;;4.93;;
53666;SDS011;39568;51.026;5.468;2022-12-07T13:35:55;11.98;;;5.82;;
53666;SDS011;39568;51.026;5.468;2022-12-07T13:38:25;6.35;;;3.88;;
53666;SDS011;39568;51.026;5.468;2022-12-07T13:41:01;14.50;;;5.63;;
53666;SDS011;39568;51.026;5.468;2022-12-07T13:43:29;11.45;;;6.82;;
53666;SDS011;39568;51.026;5.468;2022-12-07T13:45:56;2.55;;;1.50;;
53666;SDS011;39568;51.026;5.468;2022-12-07T13:48:25;3.90;;;2.75;;
53666;SDS011;39568;51.026;5.468;2022-12-07T13:50:57;2.92;;;2.17;;
53666;SDS011;39568;51.026;5.468;2022-12-07T13:53:27;2.83;;;2.58;;
53666;SDS011;39568;51.026;5.468;2022-12-07T13:55:55;13.23;;;3.05;;
53666;SDS011;39568;51.026;5.468;2022-12-07T13:58:23;3.38;;;1.58;;
53666;SDS011;39568;51.026;5.468;2022-12-07T14:00:50;3.67;;;2.58;;
53666;SDS011;39568;51.026;5.468;2022-12-07T14:03:23;6.10;;;3.10;;
53666;SDS011;39568;51.026;5.468;2022-12-07T14:06:04;5.95;;;3.13;;
53666;SDS011;39568;51.026;5.468;2022-12-07T14:08:35;4.25;;;2.03;;
53666;SDS011;39568;51.026;5.468;2022-12-07T14:11:01;1.67;;;1.30;;
53666;SDS011;39568;51.026;5.468;2022-12-07T14:13:30;3.75;;;3.00;;
53666;SDS011;39568;51.026;5.468;2022-12-07T14:15:59;4.32;;;2.47;;
53666;SDS011;39568;51.026;5.468;2022-12-07T14:18:27;5.20;;;2.72;;
53666;SDS011;39568;51.026;5.468;2022-12-07T14:21:04;1.55;;;1.45;;
53666;SDS011;39568;51.026;5.468;2022-12-07T14:23:32;7.63;;;3.17;;
53666;SDS011;39568;51.026;5.468;2022-12-07T14:26:06;2.40;;;2.30;;
53666;SDS011;39568;51.026;5.468;2022-12-07T14:28:38;2.92;;;2.15;;
53666;SDS011;39568;51.026;5.468;2022-12-07T14:31:08;5.25;;;3.22;;
53666;SDS011;39568;51.026;5.468;2022-12-07T14:33:37;6.13;;;3.33;;
53666;SDS011;39568;51.026;5.468;2022-12-07T14:36:05;6.18;;;2.42;;
53666;SDS011;39568;51.026;5.468;2022-12-07T14:38:32;6.78;;;3.20;;
53666;SDS011;39568;51.026;5.468;2022-12-07T14:40:58;6.53;;;3.10;;
53666;SDS011;39568;51.026;5.468;2022-12-07T14:43:46;3.05;;;2.75;;
53666;SDS011;39568;51.026;5.468;2022-12-07T14:46:13;6.93;;;2.50;;
53666;SDS011;39568;51.026;5.468;2022-12-07T14:48:40;7.70;;;2.60;;
53666;SDS011;39568;51.026;5.468;2022-12-07T14:51:07;6.55;;;2.70;;
53666;SDS011;39568;51.026;5.468;2022-12-07T14:53:40;6.72;;;2.83;;
53666;SDS011;39568;51.026;5.468;2022-12-07T14:56:08;4.90;;;2.92;;
53666;SDS011;39568;51.026;5.468;2022-12-07T14:58:35;8.07;;;3.65;;
53666;SDS011;39568;51.026;5.468;2022-12-07T15:01:03;8.77;;;3.00;;
53666;SDS011;39568;51.026;5.468;2022-12-07T15:03:30;11.05;;;4.95;;
53666;SDS011;39568;51.026;5.468;2022-12-07T15:05:57;7.85;;;3.92;;
53666;SDS011;39568;51.026;5.468;2022-12-07T15:08:24;8.90;;;4.25;;
53666;SDS011;39568;51.026;5.468;2022-12-07T15:10:50;2.10;;;2.00;;
53666;SDS011;39568;51.026;5.468;2022-12-07T15:13:17;5.20;;;4.18;;